createdAt,value
2019-05-23T00:01:11.240Z,2.27
2019-05-23T00:03:46.326Z,3.10
2019-05-23T00:06:18.410Z,2.17
2019-05-23T00:08:49.933Z,3.13
2019-05-23T00:11:40.018Z,2.20
2019-05-23T00:14:22.527Z,3.00
2019-05-23T00:16:55.577Z,2.77
2019-05-23T00:19:26.772Z,2.72
2019-05-23T00:21:56.627Z,2.30
2019-05-23T00:24:27.753Z,3.30
2019-05-23T00:26:59.929Z,2.23
2019-05-23T00:29:30.005Z,2.50
2019-05-23T00:32:05.279Z,2.70
2019-05-23T00:34:34.895Z,2.93
2019-05-23T00:37:06.914Z,2.35
2019-05-23T00:39:37.487Z,2.60
2019-05-23T00:42:07.944Z,2.37
2019-05-23T00:44:37.952Z,2.98
2019-05-23T00:47:07.693Z,2.50
2019-05-23T00:49:37.302Z,2.20
2019-05-23T00:52:08.567Z,2.08
2019-05-23T00:54:38.097Z,3.45
2019-05-23T00:57:09.806Z,1.95
2019-05-23T00:59:39.741Z,3.30
2019-05-23T01:02:11.189Z,2.67
2019-05-23T01:04:42.795Z,2.47
2019-05-23T01:07:12.699Z,4.00
2019-05-23T01:09:42.870Z,2.80
2019-05-23T01:12:12.794Z,3.12
2019-05-23T01:14:42.600Z,2.62
2019-05-23T01:17:12.227Z,2.80
2019-05-23T01:19:42.529Z,2.52
2019-05-23T01:22:14.153Z,2.95
2019-05-23T01:24:48.530Z,2.77
2019-05-23T01:27:18.752Z,2.58
2019-05-23T01:29:50.358Z,2.60
2019-05-23T01:32:38.977Z,3.15
2019-05-23T01:35:09.965Z,2.90
2019-05-23T01:37:41.444Z,2.27
2019-05-23T01:40:13.039Z,1.60
2019-05-23T01:42:44.114Z,1.77
2019-05-23T01:45:15.217Z,2.67
2019-05-23T01:47:47.631Z,1.95
2019-05-23T01:50:20.884Z,2.05
2019-05-23T01:52:51.679Z,2.60
2019-05-23T01:55:22.075Z,2.30
2019-05-23T01:57:52.509Z,2.55
2019-05-23T02:00:24.835Z,2.33
2019-05-23T02:02:55.916Z,2.22
2019-05-23T02:05:25.748Z,2.67
2019-05-23T02:07:56.729Z,3.62
2019-05-23T02:10:27.291Z,1.45
2019-05-23T02:12:57.822Z,2.27
2019-05-23T02:15:28.704Z,1.80
2019-05-23T02:17:58.531Z,2.45
2019-05-23T02:20:29.393Z,2.70
2019-05-23T02:22:58.875Z,1.82
2019-05-23T02:25:29.241Z,2.40
2019-05-23T02:27:59.469Z,2.20
2019-05-23T02:30:36.553Z,2.80
2019-05-23T02:33:00.139Z,1.92
2019-05-23T02:35:29.760Z,2.67
2019-05-23T02:38:14.704Z,2.50
2019-05-23T02:40:49.274Z,2.83
2019-05-23T02:43:20.837Z,3.00
2019-05-23T02:45:53.754Z,2.75
2019-05-23T02:48:26.047Z,3.02
2019-05-23T02:50:59.986Z,3.30
2019-05-23T02:53:35.518Z,2.35
2019-05-23T02:56:09.214Z,3.70
2019-05-23T02:58:59.623Z,2.65
2019-05-23T03:01:48.406Z,2.30
2019-05-23T03:04:26.841Z,2.37
2019-05-23T03:06:56.424Z,1.80
2019-05-23T03:09:29.961Z,1.90
2019-05-23T03:12:03.966Z,2.72
2019-05-23T03:14:36.506Z,3.30
2019-05-23T03:17:10.367Z,3.08
2019-05-23T03:19:53.018Z,3.15
2019-05-23T03:22:34.648Z,3.30
2019-05-23T03:25:08.919Z,3.15
2019-05-23T03:27:43.945Z,2.58
2019-05-23T03:30:19.389Z,3.98
2019-05-23T03:32:51.282Z,2.30
2019-05-23T03:35:25.713Z,2.30
2019-05-23T03:37:55.288Z,2.72
2019-05-23T03:40:25.041Z,2.58
2019-05-23T03:42:54.749Z,3.15
2019-05-23T03:45:26.624Z,2.40
2019-05-23T03:47:56.253Z,2.90
2019-05-23T03:50:26.112Z,4.05
2019-05-23T03:52:56.929Z,2.60
2019-05-23T03:55:28.706Z,3.42
2019-05-23T03:58:00.110Z,2.47
2019-05-23T04:00:35.861Z,3.20
2019-05-23T04:03:06.102Z,2.30
2019-05-23T04:05:37.565Z,3.40
2019-05-23T04:08:09.411Z,2.92
2019-05-23T04:10:39.553Z,2.70
2019-05-23T04:13:09.706Z,3.37
2019-05-23T04:15:39.363Z,4.50
2019-05-23T04:18:08.805Z,2.95
2019-05-23T04:20:38.846Z,1.95
2019-05-23T04:23:09.113Z,2.60
2019-05-23T04:25:38.442Z,3.22
2019-05-23T04:28:07.907Z,2.58
2019-05-23T04:30:37.615Z,2.62
2019-05-23T04:33:07.570Z,3.30
2019-05-23T04:35:38.020Z,2.83
2019-05-23T04:38:08.280Z,4.50
2019-05-23T04:40:41.244Z,4.03
2019-05-23T04:43:10.504Z,2.85
2019-05-23T04:45:40.222Z,5.47
2019-05-23T04:48:09.754Z,5.17
2019-05-23T04:50:39.631Z,4.17
2019-05-23T04:53:09.977Z,6.03
2019-05-23T04:55:39.509Z,3.62
2019-05-23T04:58:10.042Z,2.65
2019-05-23T05:00:39.557Z,3.42
2019-05-23T05:03:10.112Z,4.60
2019-05-23T05:05:40.162Z,4.00
2019-05-23T05:08:09.705Z,3.37
2019-05-23T05:10:39.913Z,5.17
2019-05-23T05:13:09.557Z,4.03
2019-05-23T05:15:38.953Z,4.20
2019-05-23T05:18:08.688Z,4.28
2019-05-23T05:20:38.293Z,5.62
2019-05-23T05:23:07.682Z,4.90
2019-05-23T05:25:36.948Z,4.10
2019-05-23T05:28:06.932Z,6.30
2019-05-23T05:30:36.170Z,5.70
2019-05-23T05:33:05.658Z,4.23
2019-05-23T05:35:35.706Z,3.93
2019-05-23T05:38:05.041Z,4.47
2019-05-23T05:40:34.990Z,5.40
2019-05-23T05:43:04.617Z,6.10
2019-05-23T05:45:34.025Z,4.80
2019-05-23T05:48:04.045Z,4.57
2019-05-23T05:50:34.360Z,6.70
2019-05-23T05:53:05.231Z,6.60
2019-05-23T05:55:34.894Z,5.17
2019-05-23T05:58:05.229Z,4.37
2019-05-23T06:00:53.565Z,5.27
2019-05-23T06:03:23.222Z,5.63
2019-05-23T06:06:08.841Z,6.70
2019-05-23T06:08:39.911Z,4.23
2019-05-23T06:11:09.587Z,5.03
2019-05-23T06:13:39.171Z,4.20
2019-05-23T06:16:09.008Z,4.77
2019-05-23T06:18:38.296Z,3.50
2019-05-23T06:21:07.756Z,4.53
2019-05-23T06:23:37.596Z,6.50
2019-05-23T06:26:06.844Z,3.67
2019-05-23T06:28:37.577Z,6.80
2019-05-23T06:31:07.650Z,4.17
2019-05-23T06:33:37.554Z,4.70
2019-05-23T06:36:07.845Z,4.23
2019-05-23T06:38:37.761Z,4.87
2019-05-23T06:41:07.996Z,4.47
2019-05-23T06:43:39.161Z,4.93
2019-05-23T06:46:08.478Z,5.50
2019-05-23T06:48:45.412Z,5.80
2019-05-23T06:51:31.012Z,4.27
2019-05-23T06:54:01.170Z,5.57
2019-05-23T06:56:31.100Z,4.13
2019-05-23T06:59:00.666Z,4.40
2019-05-23T07:01:30.190Z,4.50
2019-05-23T07:04:00.768Z,5.80
2019-05-23T07:06:30.237Z,7.87
2019-05-23T07:09:00.166Z,4.53
2019-05-23T07:11:29.351Z,5.00
2019-05-23T07:13:58.731Z,5.97
2019-05-23T07:16:27.993Z,6.40
2019-05-23T07:18:57.271Z,7.10
2019-05-23T07:21:28.196Z,6.20
2019-05-23T07:23:57.461Z,5.67
2019-05-23T07:26:27.298Z,5.53
2019-05-23T07:28:56.924Z,5.30
2019-05-23T07:31:26.194Z,4.80
2019-05-23T07:34:01.611Z,6.67
2019-05-23T07:36:27.028Z,6.87
2019-05-23T07:38:56.571Z,5.70
2019-05-23T07:41:25.824Z,5.73
2019-05-23T07:43:55.825Z,6.77
2019-05-23T07:46:25.768Z,5.60
2019-05-23T07:48:55.112Z,4.90
2019-05-23T07:51:24.406Z,6.47
2019-05-23T07:54:07.469Z,6.07
2019-05-23T07:56:37.451Z,5.57
2019-05-23T07:59:07.211Z,6.43
2019-05-23T08:01:38.760Z,5.27
2019-05-23T08:04:20.351Z,6.20
2019-05-23T08:06:39.826Z,4.50
2019-05-23T08:09:11.190Z,5.63
2019-05-23T08:11:40.852Z,4.53
2019-05-23T08:14:12.180Z,4.00
2019-05-23T08:16:41.622Z,5.80
2019-05-23T08:19:11.328Z,5.63
2019-05-23T08:21:40.551Z,7.13
2019-05-23T08:24:11.332Z,3.33
2019-05-23T08:26:41.020Z,4.80
2019-05-23T08:29:27.027Z,4.40
2019-05-23T08:31:42.279Z,4.60
2019-05-23T08:34:11.884Z,4.97
2019-05-23T08:36:41.921Z,4.50
2019-05-23T08:39:11.337Z,4.00
2019-05-23T08:41:41.395Z,4.13
2019-05-23T08:44:11.584Z,4.63
2019-05-23T08:46:41.472Z,3.90
2019-05-23T08:49:11.131Z,3.47
2019-05-23T08:51:40.681Z,2.00
2019-05-23T08:54:10.222Z,2.90
2019-05-23T08:56:39.868Z,2.40
2019-05-23T08:59:10.764Z,3.50
2019-05-23T09:01:39.961Z,2.30
2019-05-23T09:04:10.353Z,2.93
2019-05-23T09:06:40.151Z,3.87
2019-05-23T09:09:28.405Z,2.57
2019-05-23T09:11:42.251Z,3.50
2019-05-23T09:14:11.442Z,3.17
2019-05-23T09:16:41.057Z,2.27
2019-05-23T09:19:10.415Z,2.60
2019-05-23T09:21:40.072Z,2.90
2019-05-23T09:24:09.920Z,2.80
2019-05-23T09:26:39.627Z,2.13
2019-05-23T09:29:09.760Z,3.23
2019-05-23T09:31:40.026Z,2.00
2019-05-23T09:34:09.380Z,2.97
2019-05-23T09:36:38.623Z,2.60
2019-05-23T09:39:09.796Z,3.47
2019-05-23T09:41:39.342Z,2.23
2019-05-23T09:44:09.270Z,2.67
2019-05-23T09:46:38.510Z,2.67
2019-05-23T09:49:11.134Z,2.80
2019-05-23T09:51:38.794Z,2.40
2019-05-23T09:54:08.149Z,3.13
2019-05-23T09:56:38.932Z,3.63
2019-05-23T09:59:08.444Z,2.80
2019-05-23T10:01:37.722Z,3.37
2019-05-23T10:04:08.655Z,2.30
2019-05-23T10:06:37.912Z,2.73
2019-05-23T10:09:08.915Z,2.73
2019-05-23T10:11:38.117Z,2.07
2019-05-23T10:14:12.677Z,2.30
2019-05-23T10:16:42.263Z,2.90
2019-05-23T10:19:11.598Z,2.73
2019-05-23T10:21:40.859Z,2.40
2019-05-23T10:24:11.382Z,2.90
2019-05-23T10:26:40.664Z,2.63
2019-05-23T10:29:09.866Z,2.40
2019-05-23T10:31:39.224Z,1.93
2019-05-23T10:34:08.480Z,2.43
2019-05-23T10:36:38.136Z,3.30
2019-05-23T10:39:10.434Z,3.23
2019-05-23T10:41:39.690Z,2.40
2019-05-23T10:44:09.089Z,3.23
2019-05-23T10:46:38.738Z,3.13
2019-05-23T10:49:08.601Z,3.50
2019-05-23T10:51:37.793Z,2.73
2019-05-23T10:54:07.086Z,2.70
2019-05-23T10:56:36.424Z,3.50
2019-05-23T10:59:06.400Z,3.10
2019-05-23T11:01:36.084Z,3.13
2019-05-23T11:04:06.244Z,2.50
2019-05-23T11:06:36.555Z,3.13
2019-05-23T11:09:09.298Z,3.30
2019-05-23T11:11:38.738Z,3.47
2019-05-23T11:14:09.262Z,4.07
2019-05-23T11:16:38.949Z,3.67
2019-05-23T11:19:09.824Z,3.00
2019-05-23T11:21:39.281Z,3.03
2019-05-23T11:24:10.638Z,2.77
2019-05-23T11:26:40.345Z,2.77
2019-05-23T11:29:10.376Z,3.37
2019-05-23T11:31:39.730Z,3.37
2019-05-23T11:34:09.296Z,3.27
2019-05-23T11:36:38.552Z,3.10
2019-05-23T11:39:09.742Z,3.70
2019-05-23T11:41:39.875Z,2.93
2019-05-23T11:44:09.241Z,4.07
2019-05-23T11:46:39.151Z,3.50
2019-05-23T11:49:09.114Z,4.17
2019-05-23T11:51:41.711Z,4.63
2019-05-23T11:54:11.392Z,4.03
2019-05-23T11:56:41.571Z,3.43
2019-05-23T11:59:10.849Z,3.40
2019-05-23T12:01:49.839Z,3.97
2019-05-23T12:04:20.937Z,3.47
2019-05-23T12:07:00.132Z,3.50
2019-05-23T12:09:29.902Z,3.83
2019-05-23T12:11:59.356Z,3.90
2019-05-23T12:14:28.717Z,3.27
2019-05-23T12:16:58.510Z,3.57
2019-05-23T12:19:28.084Z,3.50
2019-05-23T12:21:57.601Z,3.57
2019-05-23T12:24:26.934Z,4.10
2019-05-23T12:26:56.334Z,4.40
2019-05-23T12:29:25.559Z,4.67
2019-05-23T12:31:54.969Z,4.33
2019-05-23T12:34:24.239Z,4.00
2019-05-23T12:37:14.314Z,4.77
2019-05-23T12:39:24.515Z,3.77
2019-05-23T12:41:54.237Z,4.30
2019-05-23T12:44:23.907Z,3.53
2019-05-23T12:46:53.513Z,4.83
2019-05-23T12:49:54.005Z,3.40
2019-05-23T12:52:24.025Z,4.17
2019-05-23T12:54:53.344Z,4.03
2019-05-23T12:57:22.886Z,5.43
2019-05-23T12:59:52.458Z,5.47
2019-05-23T13:02:25.316Z,4.13
2019-05-23T13:04:54.824Z,4.83
2019-05-23T13:07:35.613Z,4.53
2019-05-23T13:09:55.730Z,4.20
2019-05-23T13:12:25.209Z,4.77
2019-05-23T13:14:58.479Z,4.87
2019-05-23T13:17:25.375Z,4.40
2019-05-23T13:19:54.654Z,4.60
2019-05-23T13:22:23.828Z,4.73
2019-05-23T13:24:53.595Z,4.27
2019-05-23T13:27:23.465Z,3.87
2019-05-23T13:29:52.839Z,3.90
2019-05-23T13:32:22.175Z,4.30
2019-05-23T13:34:51.461Z,4.10
2019-05-23T13:37:21.301Z,4.17
2019-05-23T13:39:50.537Z,4.20
2019-05-23T13:42:19.942Z,5.00
2019-05-23T13:44:50.052Z,4.70
2019-05-23T13:47:19.508Z,4.33
2019-05-23T13:49:48.786Z,3.20
2019-05-23T13:52:18.148Z,3.53
2019-05-23T13:54:47.743Z,3.90
2019-05-23T13:57:17.106Z,3.33
2019-05-23T13:59:46.527Z,3.10
2019-05-23T14:02:15.872Z,3.30
2019-05-23T14:04:45.680Z,2.90
2019-05-23T14:07:16.827Z,3.00
2019-05-23T14:09:46.317Z,3.53
2019-05-23T14:12:21.174Z,3.27
2019-05-23T14:14:46.974Z,3.57
2019-05-23T14:17:22.699Z,3.27
2019-05-23T14:19:51.961Z,3.03
2019-05-23T14:22:22.191Z,3.60
2019-05-23T14:24:51.692Z,3.00
2019-05-23T14:27:36.156Z,3.63
2019-05-23T14:30:14.041Z,3.60
2019-05-23T14:32:55.911Z,3.63
2019-05-23T14:35:29.031Z,4.03
2019-05-23T14:38:00.388Z,3.30
2019-05-23T14:40:29.760Z,3.70
2019-05-23T14:43:10.117Z,3.03
2019-05-23T14:45:52.058Z,3.80
2019-05-23T14:48:37.565Z,3.50
2019-05-23T14:51:22.170Z,3.67
2019-05-23T14:53:54.857Z,3.63
2019-05-23T14:56:26.072Z,3.13
2019-05-23T14:58:55.263Z,3.43
2019-05-23T15:01:26.486Z,3.40
2019-05-23T15:03:56.487Z,3.20
2019-05-23T15:06:26.017Z,4.00
2019-05-23T15:08:55.257Z,3.70
2019-05-23T15:11:25.162Z,3.70
2019-05-23T15:13:55.390Z,3.67
2019-05-23T15:16:25.049Z,3.73
2019-05-23T15:18:54.388Z,4.20
2019-05-23T15:21:23.649Z,3.90
2019-05-23T15:23:52.921Z,3.93
2019-05-23T15:26:23.664Z,4.63
2019-05-23T15:28:53.159Z,4.00
2019-05-23T15:31:23.098Z,4.20
2019-05-23T15:33:52.451Z,4.17
2019-05-23T15:36:21.771Z,3.87
2019-05-23T15:39:07.639Z,4.33
2019-05-23T15:41:22.075Z,3.67
2019-05-23T15:43:51.346Z,4.30
2019-05-23T15:46:20.630Z,3.47
2019-05-23T15:48:49.949Z,4.37
2019-05-23T15:51:23.245Z,3.20
2019-05-23T15:54:01.908Z,4.20
2019-05-23T15:56:48.528Z,3.70
2019-05-23T15:59:25.337Z,4.23
2019-05-23T16:02:01.899Z,5.00
2019-05-23T16:04:31.396Z,3.70
2019-05-23T16:07:00.761Z,4.00
2019-05-23T16:09:31.099Z,4.30
2019-05-23T16:12:00.899Z,4.07
2019-05-23T16:14:31.530Z,4.10
2019-05-23T16:17:01.098Z,4.00
2019-05-23T16:19:30.655Z,3.60
2019-05-23T16:21:59.962Z,4.37
2019-05-23T16:24:29.311Z,5.10
2019-05-23T16:26:58.728Z,4.00
2019-05-23T16:29:28.582Z,4.20
2019-05-23T16:31:58.498Z,3.17
2019-05-23T16:34:28.411Z,3.83
2019-05-23T16:36:57.624Z,3.87
2019-05-23T16:39:27.264Z,3.50
2019-05-23T16:41:56.887Z,3.70
2019-05-23T16:44:26.084Z,3.20
2019-05-23T16:46:55.328Z,3.37
2019-05-23T16:49:24.617Z,2.70
2019-05-23T16:51:53.972Z,4.00
2019-05-23T16:54:27.403Z,3.87
2019-05-23T16:57:14.443Z,3.83
2019-05-23T16:59:51.785Z,3.50
2019-05-23T17:02:43.240Z,3.40
2019-05-23T17:05:24.916Z,3.80
2019-05-23T17:08:13.287Z,3.27
2019-05-23T17:10:53.185Z,3.20
2019-05-23T17:13:29.031Z,2.90
2019-05-23T17:16:10.578Z,3.80
2019-05-23T17:18:48.850Z,3.20
2019-05-23T17:21:43.148Z,3.20
2019-05-23T17:24:28.839Z,3.73
2019-05-23T17:27:05.890Z,4.07
2019-05-23T17:29:53.302Z,4.53
2019-05-23T17:32:26.309Z,4.50
2019-05-23T17:34:56.141Z,3.87
2019-05-23T17:37:26.505Z,4.33
2019-05-23T17:39:56.068Z,4.53
2019-05-23T17:42:25.524Z,4.87
2019-05-23T17:44:54.804Z,5.30
2019-05-23T17:47:24.537Z,5.07
2019-05-23T17:49:54.094Z,4.30
2019-05-23T17:52:23.753Z,4.97
2019-05-23T17:54:53.353Z,4.87
2019-05-23T17:57:22.604Z,3.47
2019-05-23T17:59:51.912Z,3.80
2019-05-23T18:02:22.440Z,4.17
2019-05-23T18:04:52.100Z,3.90
2019-05-23T18:07:21.984Z,4.13
2019-05-23T18:09:51.893Z,3.60
2019-05-23T18:12:21.525Z,3.97
2019-05-23T18:14:51.156Z,4.27
2019-05-23T18:17:20.916Z,4.13
2019-05-23T18:19:50.936Z,3.50
2019-05-23T18:22:20.634Z,4.60
2019-05-23T18:24:49.953Z,3.83
2019-05-23T18:27:20.722Z,3.80
2019-05-23T18:29:50.677Z,3.90
2019-05-23T18:32:23.071Z,4.63
2019-05-23T18:34:53.203Z,3.40
2019-05-23T18:37:22.744Z,3.10
2019-05-23T18:39:52.401Z,3.20
2019-05-23T18:42:22.336Z,2.80
2019-05-23T18:44:51.625Z,2.93
2019-05-23T18:47:27.202Z,3.60
2019-05-23T18:49:56.758Z,4.53
2019-05-23T18:52:26.646Z,2.73
2019-05-23T18:54:55.897Z,2.87
2019-05-23T18:57:25.560Z,2.97
2019-05-23T18:59:54.772Z,2.77
2019-05-23T19:02:25.391Z,2.87
2019-05-23T19:04:55.274Z,3.60
2019-05-23T19:07:24.466Z,3.10
2019-05-23T19:09:53.720Z,2.67
2019-05-23T19:12:23.708Z,3.50
2019-05-23T19:14:53.260Z,2.80
2019-05-23T19:17:22.728Z,2.67
2019-05-23T19:19:52.668Z,2.40
2019-05-23T19:22:22.404Z,2.80
2019-05-23T19:24:51.589Z,3.10
2019-05-23T19:27:21.102Z,2.53
2019-05-23T19:29:50.347Z,2.73
2019-05-23T19:32:19.542Z,3.00
2019-05-23T19:34:48.887Z,3.07
2019-05-23T19:37:18.908Z,2.43
2019-05-23T19:39:48.501Z,2.70
2019-05-23T19:42:18.567Z,3.20
2019-05-23T19:44:47.956Z,2.93
2019-05-23T19:47:17.224Z,2.30
2019-05-23T19:49:46.868Z,2.50
2019-05-23T19:52:16.894Z,2.20
2019-05-23T19:54:46.554Z,2.47
2019-05-23T19:57:16.042Z,2.30
2019-05-23T19:59:45.664Z,2.60
2019-05-23T20:02:37.407Z,2.90
2019-05-23T20:05:14.260Z,2.33
2019-05-23T20:07:43.570Z,2.77
2019-05-23T20:10:15.209Z,2.47
2019-05-23T20:12:45.148Z,2.80
2019-05-23T20:15:14.954Z,2.90
2019-05-23T20:17:44.229Z,2.97
2019-05-23T20:20:13.870Z,3.70
2019-05-23T20:22:43.479Z,4.17
2019-05-23T20:25:14.137Z,2.57
2019-05-23T20:27:43.432Z,3.93
2019-05-23T20:30:16.930Z,2.20
2019-05-23T20:32:46.782Z,2.40
2019-05-23T20:35:16.207Z,2.13
2019-05-23T20:37:45.786Z,2.53
2019-05-23T20:40:15.313Z,2.40
2019-05-23T20:42:44.636Z,2.60
2019-05-23T20:45:14.238Z,2.73
2019-05-23T20:47:43.872Z,3.17
2019-05-23T20:50:13.424Z,3.13
2019-05-23T20:52:42.745Z,2.50
2019-05-23T20:55:12.391Z,3.60
2019-05-23T20:57:41.946Z,2.73
2019-05-23T21:00:13.059Z,2.80
2019-05-23T21:02:42.249Z,3.20
2019-05-23T21:05:11.730Z,4.30
2019-05-23T21:07:40.936Z,3.57
2019-05-23T21:10:12.003Z,3.40
2019-05-23T21:12:41.486Z,3.20
2019-05-23T21:15:10.694Z,3.60
2019-05-23T21:17:39.958Z,3.30
2019-05-23T21:20:09.148Z,2.37
2019-05-23T21:22:38.552Z,2.67
2019-05-23T21:25:07.936Z,2.20
2019-05-23T21:27:37.193Z,2.90
2019-05-23T21:30:07.047Z,2.67
2019-05-23T21:32:36.226Z,3.70
2019-05-23T21:35:06.236Z,3.17
2019-05-23T21:37:35.434Z,2.50
2019-05-23T21:40:05.105Z,3.57
2019-05-23T21:42:47.434Z,3.50
2019-05-23T21:45:05.717Z,2.90
2019-05-23T21:47:34.905Z,3.50
2019-05-23T21:50:05.073Z,5.23
2019-05-23T21:52:34.357Z,3.10
2019-05-23T21:55:04.006Z,2.37
2019-05-23T21:57:33.283Z,3.33
2019-05-23T22:00:02.617Z,2.60
2019-05-23T22:02:34.733Z,2.57
2019-05-23T22:05:12.348Z,2.50
2019-05-23T22:07:41.903Z,2.40
2019-05-23T22:10:11.562Z,2.23
2019-05-23T22:12:41.320Z,3.30
2019-05-23T22:15:12.409Z,2.43
2019-05-23T22:17:42.536Z,2.67
2019-05-23T22:20:12.091Z,2.80
2019-05-23T22:22:41.281Z,3.33
2019-05-23T22:25:13.713Z,2.73
2019-05-23T22:27:43.071Z,2.27
2019-05-23T22:30:13.983Z,3.00
2019-05-23T22:32:43.322Z,2.37
2019-05-23T22:35:16.327Z,3.20
2019-05-23T22:37:46.156Z,2.80
2019-05-23T22:40:15.698Z,2.67
2019-05-23T22:42:44.990Z,2.20
2019-05-23T22:45:16.756Z,2.30
2019-05-23T22:47:45.956Z,2.57
2019-05-23T22:50:16.038Z,3.10
2019-05-23T22:52:45.364Z,2.30
2019-05-23T22:55:14.550Z,2.77
2019-05-23T22:57:43.941Z,2.27
2019-05-23T23:00:16.259Z,2.50
2019-05-23T23:02:46.204Z,2.67
2019-05-23T23:05:15.645Z,2.70
2019-05-23T23:07:44.914Z,2.10
2019-05-23T23:10:14.585Z,2.53
2019-05-23T23:12:43.868Z,2.73
2019-05-23T23:15:13.327Z,3.23
2019-05-23T23:17:42.598Z,3.00
2019-05-23T23:20:12.181Z,3.60
2019-05-23T23:22:41.442Z,2.43
2019-05-23T23:25:10.985Z,2.90
2019-05-23T23:27:40.194Z,2.37
2019-05-23T23:30:11.586Z,2.43
2019-05-23T23:32:40.808Z,2.50
2019-05-23T23:35:10.533Z,3.20
2019-05-23T23:37:39.851Z,3.00
2019-05-23T23:40:09.958Z,3.10
2019-05-23T23:42:39.618Z,2.83
2019-05-23T23:45:27.101Z,2.73
2019-05-23T23:48:14.266Z,3.50
2019-05-23T23:51:20.125Z,4.47
2019-05-23T23:54:07.048Z,3.40
2019-05-23T23:56:54.372Z,4.27
2019-05-23T23:59:22.741Z,3.67
